Time;durP1;ratioP1;P1;durP2;ratioP2;P2;SDS_P1;SDS_P2;PMS_P1;PMS_P2;Temp;Humidity;BMP_temperature;BMP_pressure;BME280_temperature;BME280_humidity;BME280_pressure;Samples;Min_cycle;Max_cycle;Signal;HPM_P1;HPM_P2
2021/04/27 00:00:57;;;;;;;2.33;1.77;;;10.30;35.40;;;;;;5014767;28;20186;-78
2021/04/27 00:03:23;;;;;;;3.70;1.67;;;10.30;35.50;;;;;;5020766;28;20579;-77
2021/04/27 00:05:49;;;;;;;4.27;1.60;;;10.30;35.50;;;;;;5032192;28;21489;-78
2021/04/27 00:08:15;;;;;;;4.60;1.85;;;10.30;35.60;;;;;;5030748;28;20577;-78
2021/04/27 00:10:41;;;;;;;2.13;1.90;;;10.30;35.80;;;;;;5014373;28;20202;-78
2021/04/27 00:13:08;;;;;;;2.33;1.77;;;10.20;35.70;;;;;;5032037;28;20173;-78
2021/04/27 00:15:35;;;;;;;2.08;1.73;;;10.20;36.60;;;;;;4998071;28;20173;-78
2021/04/27 00:18:01;;;;;;;2.45;1.52;;;10.20;36.00;;;;;;5031720;28;20204;-78
2021/04/27 00:20:27;;;;;;;2.10;1.37;;;10.20;35.90;;;;;;5014237;28;20575;-78
2021/04/27 00:22:54;;;;;;;2.55;1.80;;;10.10;36.60;;;;;;5030724;28;20180;-78
2021/04/27 00:25:20;;;;;;;3.25;1.58;;;10.10;36.00;;;;;;5014431;28;20177;-78
2021/04/27 00:27:50;;;;;;;2.30;1.77;;;10.10;36.00;;;;;;5013759;28;20561;-78
2021/04/27 00:30:22;;;;;;;2.55;1.60;;;10.00;35.90;;;;;;5031848;28;20728;-78
2021/04/27 00:32:48;;;;;;;1.80;1.45;;;10.10;35.90;;;;;;5031819;28;20174;-78
2021/04/27 00:35:15;;;;;;;2.83;1.45;;;10.00;35.90;;;;;;5031774;28;20504;-78
2021/04/27 00:37:41;;;;;;;2.33;1.63;;;10.00;35.80;;;;;;5031486;28;20173;-78
2021/04/27 00:40:09;;;;;;;2.22;1.20;;;10.00;35.90;;;;;;5036822;28;20180;-78
2021/04/27 00:42:45;;;;;;;2.42;2.15;;;10.00;36.40;;;;;;5031802;28;20681;-78
2021/04/27 00:45:13;;;;;;;3.13;1.20;;;10.00;36.30;;;;;;5013961;28;20532;-77
2021/04/27 00:47:39;;;;;;;2.40;1.90;;;10.00;36.10;;;;;;5013439;28;20247;-77
2021/04/27 00:50:07;;;;;;;2.60;1.23;;;10.00;36.70;;;;;;5013677;28;20209;-78
2021/04/27 00:52:33;;;;;;;2.78;1.42;;;10.00;36.20;;;;;;5013791;28;20173;-77
2021/04/27 00:54:58;;;;;;;1.73;1.33;;;10.00;36.30;;;;;;5013979;28;20189;-78
2021/04/27 00:57:24;;;;;;;3.93;1.80;;;10.00;36.30;;;;;;5030980;28;20170;-77
2021/04/27 00:59:52;;;;;;;2.10;1.77;;;10.00;36.40;;;;;;5031654;28;20180;-78
2021/04/27 01:02:18;;;;;;;1.92;1.70;;;10.00;36.20;;;;;;5008021;28;21258;-78
2021/04/27 01:04:44;;;;;;;1.92;1.15;;;10.00;36.10;;;;;;5007631;28;20202;-78
2021/04/27 01:07:12;;;;;;;2.88;1.55;;;10.00;36.20;;;;;;5015215;28;20194;-78
2021/04/27 01:09:47;;;;;;;2.13;1.27;;;10.00;36.10;;;;;;4994957;28;20258;-78
2021/04/27 01:12:29;;;;;;;1.60;1.27;;;10.00;36.60;;;;;;4959172;28;20186;-78
2021/04/27 01:15:16;;;;;;;3.33;1.17;;;10.00;37.90;;;;;;4933158;28;20182;-78
2021/04/27 01:17:42;;;;;;;2.35;1.50;;;10.00;36.50;;;;;;5003366;28;20174;-78
2021/04/27 01:20:19;;;;;;;1.77;1.38;;;10.00;36.50;;;;;;4959759;28;20254;-77
2021/04/27 01:23:23;;;;;;;1.52;1.15;;;9.90;37.60;;;;;;4959676;28;20179;-77
2021/04/27 01:26:12;;;;;;;1.90;1.73;;;9.90;37.30;;;;;;4958819;28;20266;-78
2021/04/27 01:28:50;;;;;;;2.25;1.17;;;9.90;37.40;;;;;;4976261;28;20178;-77
2021/04/27 01:31:18;;;;;;;1.88;1.33;;;9.90;37.20;;;;;;4942689;28;20215;-77
2021/04/27 01:33:44;;;;;;;2.72;1.20;;;9.90;37.20;;;;;;4958499;28;20526;-78
2021/04/27 01:36:11;;;;;;;1.80;1.35;;;9.80;37.10;;;;;;4958779;28;20172;-77
2021/04/27 01:38:48;;;;;;;5.38;1.30;;;9.80;37.20;;;;;;4958717;28;20163;-77
2021/04/27 01:41:14;;;;;;;1.70;1.25;;;9.80;37.40;;;;;;4958653;28;20203;-77
2021/04/27 01:43:42;;;;;;;1.45;1.00;;;9.80;37.50;;;;;;4958823;28;20187;-77
2021/04/27 01:46:10;;;;;;;2.25;1.40;;;9.80;37.40;;;;;;4958898;28;20176;-77
2021/04/27 01:48:37;;;;;;;2.10;1.30;;;9.70;37.30;;;;;;4975496;28;20184;-77
2021/04/27 01:51:08;;;;;;;3.88;1.50;;;9.70;37.40;;;;;;4942355;28;20284;-78
2021/04/27 01:53:53;;;;;;;1.83;1.30;;;9.70;37.50;;;;;;4979891;28;20530;-77
2021/04/27 01:56:21;;;;;;;2.00;1.33;;;9.60;37.60;;;;;;4975501;28;20201;-77
2021/04/27 01:58:48;;;;;;;1.77;1.13;;;9.60;37.70;;;;;;4942377;28;20171;-77
2021/04/27 02:01:14;;;;;;;2.25;1.23;;;9.60;38.00;;;;;;4958163;28;20188;-77
2021/04/27 02:03:45;;;;;;;2.00;1.50;;;9.60;37.80;;;;;;4958291;28;20663;-78
2021/04/27 02:06:17;;;;;;;1.80;1.70;;;9.60;37.80;;;;;;4958879;28;20578;-77
2021/04/27 02:08:57;;;;;;;4.40;1.60;;;9.60;37.80;;;;;;4942219;28;20580;-77
2021/04/27 02:11:26;;;;;;;3.28;1.75;;;9.50;38.40;;;;;;4987981;28;20198;-78
2021/04/27 02:13:52;;;;;;;2.45;1.75;;;9.50;38.10;;;;;;4961386;28;20225;-77
2021/04/27 02:16:21;;;;;;;2.53;1.47;;;9.50;38.40;;;;;;4977236;28;20182;-78
2021/04/27 02:18:55;;;;;;;1.98;1.42;;;9.40;39.30;;;;;;4977340;28;20571;-77
2021/04/27 02:21:23;;;;;;;1.65;1.25;;;9.40;38.80;;;;;;4976280;28;20270;-77
2021/04/27 02:24:09;;;;;;;2.08;1.52;;;9.40;38.80;;;;;;4993618;28;20270;-77
2021/04/27 02:26:41;;;;;;;2.40;1.40;;;9.40;38.80;;;;;;4977130;28;20643;-77
2021/04/27 02:29:17;;;;;;;1.50;1.40;;;9.30;38.50;;;;;;4993460;28;20178;-77
2021/04/27 02:31:43;;;;;;;1.90;1.35;;;9.30;38.30;;;;;;4999325;28;20187;-77
2021/04/27 02:34:11;;;;;;;1.80;1.50;;;9.30;38.80;;;;;;4994761;28;20513;-77
2021/04/27 02:36:41;;;;;;;1.65;1.23;;;9.30;38.50;;;;;;4976692;28;20649;-77
2021/04/27 02:39:18;;;;;;;1.52;1.38;;;9.30;38.30;;;;;;4994380;28;20174;-77
2021/04/27 02:41:45;;;;;;;1.65;1.10;;;9.20;38.40;;;;;;4960987;28;20599;-78
2021/04/27 02:44:35;;;;;;;1.63;1.13;;;9.20;38.40;;;;;;4970612;28;20195;-78
2021/04/27 02:47:02;;;;;;;2.22;1.48;;;9.20;38.30;;;;;;4976573;28;20250;-79
2021/04/27 02:49:28;;;;;;;2.40;1.10;;;9.20;39.10;;;;;;4994058;28;20210;-78
2021/04/27 02:52:09;;;;;;;2.00;1.40;;;9.10;38.60;;;;;;4962758;28;20222;-78
2021/04/27 02:54:49;;;;;;;2.38;1.55;;;9.10;40.00;;;;;;4993186;28;20170;-78
2021/04/27 02:57:15;;;;;;;2.23;1.93;;;9.10;39.10;;;;;;4993558;28;20221;-78
2021/04/27 02:59:42;;;;;;;2.65;1.90;;;9.10;39.60;;;;;;4994396;28;20582;-78
2021/04/27 03:02:08;;;;;;;2.47;1.52;;;9.00;39.00;;;;;;4994766;28;20194;-78
2021/04/27 03:04:35;;;;;;;1.90;1.63;;;9.00;39.00;;;;;;4976609;28;20167;-77
2021/04/27 03:07:20;;;;;;;1.60;1.40;;;9.00;39.80;;;;;;4976025;28;20183;-78
2021/04/27 03:09:49;;;;;;;3.33;1.27;;;9.00;39.00;;;;;;4981188;28;20615;-78
2021/04/27 03:12:14;;;;;;;3.77;1.60;;;8.90;39.00;;;;;;4994729;28;20171;-78
2021/04/27 03:14:41;;;;;;;1.75;1.30;;;8.90;39.00;;;;;;4976717;28;20171;-78
2021/04/27 03:17:07;;;;;;;4.70;1.50;;;8.90;39.10;;;;;;4992239;28;20175;-78
2021/04/27 03:19:36;;;;;;;2.83;1.30;;;8.90;39.90;;;;;;4976345;28;20190;-78
2021/04/27 03:22:08;;;;;;;1.95;1.20;;;8.90;39.30;;;;;;4976388;28;20550;-78
2021/04/27 03:24:34;;;;;;;2.70;1.50;;;8.90;39.20;;;;;;4976218;28;20167;-78
2021/04/27 03:27:00;;;;;;;1.70;1.40;;;8.90;39.40;;;;;;4959934;28;20185;-78
2021/04/27 03:29:39;;;;;;;2.38;1.70;;;8.90;39.50;;;;;;4976135;28;20221;-78
2021/04/27 03:32:07;;;;;;;2.95;1.38;;;8.80;39.90;;;;;;4967553;28;20229;-78
2021/04/27 03:34:35;;;;;;;2.95;1.85;;;8.80;39.60;;;;;;4988806;28;20193;-78
2021/04/27 03:37:02;;;;;;;1.85;1.52;;;8.80;40.20;;;;;;4993408;28;20166;-78
2021/04/27 03:39:29;;;;;;;2.35;1.50;;;8.80;40.50;;;;;;4989502;28;20270;-78
2021/04/27 03:41:57;;;;;;;1.50;1.33;;;8.80;39.80;;;;;;4976839;28;20616;-78
2021/04/27 03:44:23;;;;;;;1.65;1.30;;;8.70;40.00;;;;;;4978742;28;20573;-78
2021/04/27 03:46:49;;;;;;;2.25;1.58;;;8.70;39.90;;;;;;4992118;28;20181;-78
2021/04/27 03:49:14;;;;;;;1.50;1.10;;;8.70;39.70;;;;;;4962440;28;20710;-78
2021/04/27 03:51:40;;;;;;;2.30;1.20;;;8.70;39.80;;;;;;5002744;28;20629;-78
2021/04/27 03:54:10;;;;;;;2.38;1.20;;;8.70;39.60;;;;;;4984424;28;21031;-78
2021/04/27 03:56:39;;;;;;;1.60;1.27;;;8.60;39.70;;;;;;5003700;28;20184;-78
2021/04/27 03:59:07;;;;;;;2.58;1.55;;;8.60;39.60;;;;;;4994116;28;20185;-77
2021/04/27 04:01:34;;;;;;;2.65;1.10;;;8.60;40.00;;;;;;5006166;28;20512;-77
2021/04/27 04:04:01;;;;;;;2.10;1.00;;;8.60;39.80;;;;;;4983710;28;20178;-77
2021/04/27 04:06:27;;;;;;;1.85;1.20;;;8.60;39.90;;;;;;5011732;28;20174;-77
2021/04/27 04:09:05;;;;;;;2.00;1.25;;;8.60;39.90;;;;;;5004215;28;20170;-77
2021/04/27 04:11:45;;;;;;;2.50;1.40;;;8.60;39.90;;;;;;4994071;28;20578;-78
2021/04/27 04:14:11;;;;;;;2.10;1.30;;;8.60;39.80;;;;;;5018539;23;20212;-77
2021/04/27 04:17:12;;;;;;;6.85;1.90;;;8.60;40.00;;;;;;5035027;28;20176;-77
2021/04/27 04:19:39;;;;;;;2.10;1.30;;;8.60;40.40;;;;;;5054030;28;20176;-79
2021/04/27 04:22:06;;;;;;;4.05;1.40;;;8.60;40.10;;;;;;5070634;28;20213;-78
2021/04/27 04:24:40;;;;;;;3.47;1.25;;;8.60;40.60;;;;;;5053813;28;20195;-77
2021/04/27 04:27:06;;;;;;;3.40;1.58;;;8.60;40.40;;;;;;5036949;28;20191;-77
2021/04/27 04:29:51;;;;;;;2.80;1.40;;;8.60;40.30;;;;;;5058535;28;20203;-76
2021/04/27 04:33:04;;;;;;;2.80;1.10;;;8.60;40.30;;;;;;5012960;28;20179;-77
2021/04/27 04:35:48;;;;;;;2.15;1.25;;;8.60;40.30;;;;;;5071619;28;20180;-77
2021/04/27 04:38:32;;;;;;;3.08;1.55;;;8.60;40.20;;;;;;5071606;28;20615;-77
2021/04/27 04:41:17;;;;;;;2.58;1.85;;;8.60;40.20;;;;;;5056679;28;20187;-78
2021/04/27 04:44:01;;;;;;;1.80;1.25;;;8.60;40.20;;;;;;5055748;28;20311;-77
2021/04/27 04:46:45;;;;;;;2.38;1.30;;;8.60;40.20;;;;;;5051211;28;20173;-77
2021/04/27 04:49:26;;;;;;;2.20;1.10;;;8.60;40.30;;;;;;5053418;28;20175;-77
2021/04/27 04:52:11;;;;;;;2.47;1.52;;;8.60;40.50;;;;;;5052342;28;20195;-78
2021/04/27 04:54:56;;;;;;;2.05;1.67;;;8.60;40.50;;;;;;5051052;28;20180;-77
2021/04/27 04:57:47;;;;;;;2.25;1.20;;;8.60;40.50;;;;;;5032985;28;20542;-77
2021/04/27 05:00:17;;;;;;;2.42;1.20;;;8.60;40.70;;;;;;5033413;28;20173;-78
2021/04/27 05:03:02;;;;;;;5.85;1.70;;;8.60;40.60;;;;;;5051140;28;20223;-77
2021/04/27 05:05:46;;;;;;;2.97;1.25;;;8.60;40.60;;;;;;5051531;28;20189;-77
2021/04/27 05:08:35;;;;;;;3.83;1.50;;;8.70;40.80;;;;;;5035625;28;20226;-76
2021/04/27 05:11:27;;;;;;;3.00;1.52;;;8.80;41.30;;;;;;5019687;28;20219;-77
2021/04/27 05:13:56;;;;;;;3.13;1.30;;;8.90;41.20;;;;;;5033111;28;20618;-76
2021/04/27 05:16:25;;;;;;;5.30;2.10;;;9.00;41.50;;;;;;5033125;28;20636;-76
2021/04/27 05:18:51;;;;;;;5.35;1.23;;;9.10;41.80;;;;;;5051183;28;20169;-76
2021/04/27 05:21:17;;;;;;;3.85;1.40;;;9.20;41.60;;;;;;5033010;28;20641;-75
2021/04/27 05:23:44;;;;;;;2.90;1.23;;;9.30;41.60;;;;;;5050941;28;20173;-75
2021/04/27 05:26:11;;;;;;;2.70;1.30;;;9.30;41.10;;;;;;5033958;28;20192;-77
2021/04/27 05:28:37;;;;;;;1.83;1.25;;;9.30;41.20;;;;;;5036658;28;20165;-76
2021/04/27 05:31:04;;;;;;;3.03;1.52;;;9.40;41.00;;;;;;5032959;28;20193;-76
2021/04/27 05:33:29;;;;;;;2.38;1.20;;;9.30;41.10;;;;;;5016518;28;20576;-76
2021/04/27 05:35:58;;;;;;;1.90;1.43;;;9.30;40.90;;;;;;5050847;28;20181;-75
2021/04/27 05:38:24;;;;;;;3.13;1.60;;;9.30;40.90;;;;;;5032787;28;20165;-76
2021/04/27 05:40:50;;;;;;;1.88;1.20;;;9.40;41.30;;;;;;5032950;28;20173;-76
2021/04/27 05:43:16;;;;;;;3.33;1.33;;;9.40;41.00;;;;;;5050569;28;20168;-76
2021/04/27 05:45:43;;;;;;;2.17;1.50;;;9.40;41.70;;;;;;5032524;28;20600;-76
2021/04/27 05:48:09;;;;;;;2.55;1.70;;;9.40;40.80;;;;;;5032046;28;20207;-76
2021/04/27 05:50:35;;;;;;;2.25;1.83;;;9.50;41.40;;;;;;5050333;28;20504;-76
2021/04/27 05:53:01;;;;;;;4.53;1.67;;;9.50;41.10;;;;;;5032944;28;20201;-75
2021/04/27 05:55:27;;;;;;;2.35;1.40;;;9.60;41.10;;;;;;5033535;28;20189;-77
2021/04/27 05:57:54;;;;;;;2.37;1.30;;;9.60;41.30;;;;;;5035918;28;20176;-76
2021/04/27 06:00:21;;;;;;;2.42;1.20;;;9.80;41.10;;;;;;5036711;28;20594;-76
2021/04/27 06:02:47;;;;;;;4.68;2.53;;;9.80;41.00;;;;;;5054685;28;20199;-76
2021/04/27 06:05:15;;;;;;;5.05;1.50;;;9.90;41.30;;;;;;5042498;28;20208;-76
2021/04/27 06:07:41;;;;;;;3.15;1.30;;;10.00;40.20;;;;;;5053978;28;20537;-76
2021/04/27 06:10:07;;;;;;;3.20;1.70;;;10.10;40.30;;;;;;5053838;28;20731;-76
2021/04/27 06:12:34;;;;;;;3.45;1.77;;;10.10;40.60;;;;;;5053941;28;20472;-75
2021/04/27 06:14:59;;;;;;;1.70;1.15;;;10.20;40.40;;;;;;5038608;28;20219;-75
2021/04/27 06:17:25;;;;;;;3.73;1.17;;;10.30;40.30;;;;;;5053215;28;20568;-75
2021/04/27 06:19:51;;;;;;;2.90;1.50;;;10.50;40.30;;;;;;5053927;28;20628;-75
2021/04/27 06:22:17;;;;;;;3.67;1.07;;;10.70;40.50;;;;;;5033197;28;20587;-75
2021/04/27 06:24:49;;;;;;;3.35;1.30;;;11.30;41.00;;;;;;5032466;28;21224;-76
2021/04/27 06:27:14;;;;;;;3.05;1.40;;;12.20;41.60;;;;;;5035510;28;20629;-77
2021/04/27 06:29:40;;;;;;;1.77;1.00;;;13.10;42.30;;;;;;5040683;28;20192;-76
2021/04/27 06:32:06;;;;;;;1.73;0.80;;;14.00;42.00;;;;;;5037120;28;20170;-75
2021/04/27 06:34:32;;;;;;;3.20;1.00;;;15.00;41.70;;;;;;5035673;28;20203;-75
2021/04/27 06:36:58;;;;;;;4.30;1.00;;;15.90;42.30;;;;;;5035452;28;20788;-76
2021/04/27 06:39:24;;;;;;;1.53;1.03;;;17.10;41.20;;;;;;5043015;28;20208;-76
2021/04/27 06:41:50;;;;;;;4.50;1.27;;;17.80;40.30;;;;;;5040317;28;20571;-75
2021/04/27 06:44:15;;;;;;;5.77;1.37;;;18.20;37.20;;;;;;5053081;28;20181;-81
2021/04/27 06:46:41;;;;;;;3.50;1.33;;;18.90;37.90;;;;;;5052897;28;20176;-81
2021/04/27 06:49:10;;;;;;;3.83;1.77;;;19.60;38.00;;;;;;5018191;28;20611;-82
2021/04/27 06:51:36;;;;;;;2.77;0.80;;;19.90;36.30;;;;;;5026051;28;20581;-82
2021/04/27 06:54:02;;;;;;;3.23;2.13;;;20.20;36.30;;;;;;5039181;28;20610;-80
2021/04/27 06:56:27;;;;;;;1.80;0.90;;;20.70;35.50;;;;;;5050056;28;20168;-81
2021/04/27 06:58:53;;;;;;;1.40;0.73;;;21.00;36.10;;;;;;5044746;28;20575;-81
2021/04/27 07:01:19;;;;;;;1.50;0.90;;;21.20;36.20;;;;;;5053453;28;20660;-81
2021/04/27 07:03:48;;;;;;;3.17;1.10;;;21.60;36.00;;;;;;5035191;28;20191;-81
2021/04/27 07:06:14;;;;;;;1.67;1.20;;;21.90;34.60;;;;;;5058028;28;21053;-83
2021/04/27 07:08:41;;;;;;;1.50;0.80;;;22.10;35.40;;;;;;5042142;28;20917;-79
2021/04/27 07:11:07;;;;;;;4.27;1.13;;;22.70;35.90;;;;;;5036072;28;20702;-80
2021/04/27 07:13:36;;;;;;;2.00;1.00;;;23.10;34.50;;;;;;5035924;28;20572;-79
2021/04/27 07:16:03;;;;;;;3.50;1.10;;;23.10;32.90;;;;;;5010668;28;20611;-80
2021/04/27 07:18:28;;;;;;;1.80;0.97;;;23.40;34.10;;;;;;5055261;28;20617;-79
2021/04/27 07:20:54;;;;;;;1.93;0.90;;;23.50;31.80;;;;;;5043649;28;20591;-80
2021/04/27 07:23:20;;;;;;;2.77;0.77;;;23.60;32.50;;;;;;5051303;28;20180;-79
2021/04/27 07:25:45;;;;;;;3.93;0.70;;;23.40;31.10;;;;;;5065565;28;20197;-79
2021/04/27 07:28:11;;;;;;;2.73;0.83;;;23.80;32.20;;;;;;5063270;28;20169;-81
2021/04/27 07:30:37;;;;;;;6.40;0.90;;;24.30;33.60;;;;;;5068169;28;20273;-73
2021/04/27 07:33:04;;;;;;;1.50;1.00;;;24.80;32.40;;;;;;5057113;28;20172;-74
2021/04/27 07:35:34;;;;;;;1.57;0.87;;;25.10;33.10;;;;;;5073728;28;20633;-74
2021/04/27 07:38:02;;;;;;;3.40;1.53;;;25.10;29.90;;;;;;5056080;28;20567;-73
2021/04/27 07:40:32;;;;;;;3.17;1.17;;;24.70;29.40;;;;;;5073724;28;20567;-73
2021/04/27 07:42:58;;;;;;;2.17;1.10;;;24.60;29.80;;;;;;5073273;28;20585;-74
2021/04/27 07:45:30;;;;;;;2.17;0.83;;;24.70;30.10;;;;;;5072543;28;20594;-76
2021/04/27 07:47:58;;;;;;;2.07;0.77;;;24.80;29.60;;;;;;5054403;28;20582;-77
2021/04/27 07:50:23;;;;;;;3.07;1.20;;;24.90;30.20;;;;;;5072313;28;20725;-77
2021/04/27 07:52:50;;;;;;;2.17;0.90;;;24.80;28.30;;;;;;5038239;28;21141;-78
2021/04/27 07:55:15;;;;;;;2.33;1.00;;;24.50;28.80;;;;;;5072340;28;20275;-78
2021/04/27 07:57:41;;;;;;;2.60;0.70;;;24.10;28.70;;;;;;5076429;28;20602;-76
2021/04/27 08:00:09;;;;;;;3.07;1.00;;;24.00;28.50;;;;;;5054625;28;20176;-77
2021/04/27 08:02:39;;;;;;;2.03;1.00;;;24.00;28.70;;;;;;5054986;28;20169;-77
2021/04/27 08:05:06;;;;;;;1.97;1.43;;;24.10;29.30;;;;;;5072215;28;20602;-79
2021/04/27 08:07:32;;;;;;;2.83;1.00;;;24.30;28.60;;;;;;5054238;28;20602;-76
2021/04/27 08:09:58;;;;;;;2.60;1.00;;;24.20;28.30;;;;;;5072024;28;20649;-76
2021/04/27 08:12:25;;;;;;;1.20;0.80;;;24.30;28.70;;;;;;5072096;28;20677;-76
2021/04/27 08:14:51;;;;;;;2.53;1.00;;;24.50;29.00;;;;;;5037076;28;20297;-77
2021/04/27 08:17:16;;;;;;;1.70;1.20;;;24.50;28.30;;;;;;5071758;28;20584;-78
2021/04/27 08:19:42;;;;;;;1.83;0.90;;;24.50;28.50;;;;;;5053488;28;20704;-78
2021/04/27 08:22:08;;;;;;;1.57;0.80;;;24.50;28.60;;;;;;5053601;28;20176;-78
2021/04/27 08:24:35;;;;;;;1.70;1.07;;;24.90;29.40;;;;;;5071402;28;20192;-78
2021/04/27 08:27:01;;;;;;;1.93;0.93;;;25.40;28.60;;;;;;5071599;28;20539;-78
2021/04/27 08:29:27;;;;;;;2.37;1.00;;;25.50;28.50;;;;;;5035373;28;20694;-79
2021/04/27 08:31:53;;;;;;;1.40;0.80;;;25.60;28.60;;;;;;5052447;28;20580;-78
2021/04/27 08:34:19;;;;;;;1.50;1.00;;;25.50;27.50;;;;;;5037471;28;20686;-79
2021/04/27 08:36:45;;;;;;;1.60;0.97;;;25.20;27.50;;;;;;5033629;28;20176;-78
2021/04/27 08:39:11;;;;;;;1.40;0.80;;;24.90;27.80;;;;;;5050984;28;20571;-77
2021/04/27 08:41:38;;;;;;;1.30;0.97;;;24.70;28.20;;;;;;5033133;28;20591;-78
2021/04/27 08:44:05;;;;;;;2.00;1.00;;;24.90;28.40;;;;;;5033698;28;20593;-77
2021/04/27 08:46:31;;;;;;;1.60;1.00;;;25.10;28.30;;;;;;5051522;28;20616;-78
2021/04/27 08:48:57;;;;;;;1.73;1.03;;;25.60;28.60;;;;;;5034265;28;20579;-79
2021/04/27 08:51:23;;;;;;;1.33;0.83;;;25.80;28.10;;;;;;5033402;28;20629;-77
2021/04/27 08:53:49;;;;;;;1.97;0.90;;;25.70;27.90;;;;;;5017406;28;20568;-78
2021/04/27 08:56:21;;;;;;;2.97;1.10;;;26.00;29.00;;;;;;5051370;28;20934;-80
2021/04/27 08:58:47;;;;;;;1.60;0.97;;;26.40;28.30;;;;;;5022137;28;20594;-77
2021/04/27 09:01:17;;;;;;;1.87;1.00;;;27.00;28.60;;;;;;5044366;28;20631;-80
2021/04/27 09:03:50;;;;;;;2.43;1.00;;;27.40;28.70;;;;;;5018205;28;21046;-79
2021/04/27 09:06:19;;;;;;;1.60;1.20;;;27.90;28.50;;;;;;5033848;28;20695;-84
2021/04/27 09:08:47;;;;;;;1.60;0.80;;;28.40;28.10;;;;;;5017926;28;20575;-80
2021/04/27 09:11:34;;;;;;;2.00;0.93;;;28.70;28.10;;;;;;5054655;28;20560;-80
2021/04/27 09:14:08;;;;;;;3.10;1.03;;;28.90;27.60;;;;;;5050915;28;20676;-79
2021/04/27 09:16:35;;;;;;;2.27;1.30;;;29.20;27.90;;;;;;5050677;28;20621;-81
2021/04/27 09:19:01;;;;;;;3.50;1.73;;;29.30;26.10;;;;;;5033286;28;20603;-80
2021/04/27 09:21:36;;;;;;;3.20;1.27;;;29.00;26.40;;;;;;5050921;28;20611;-81
2021/04/27 09:24:20;;;;;;;1.57;1.00;;;28.90;26.60;;;;;;5033222;28;20613;-81
2021/04/27 09:26:53;;;;;;;2.13;1.03;;;28.80;26.50;;;;;;5050984;28;20667;-81
2021/04/27 09:29:40;;;;;;;2.37;1.60;;;28.60;26.00;;;;;;5034392;28;21126;-82
2021/04/27 09:32:07;;;;;;;3.20;1.20;;;28.00;24.10;;;;;;5054978;28;20563;-81
2021/04/27 09:34:38;;;;;;;6.67;1.80;;;27.40;25.60;;;;;;5056904;28;20595;-80
2021/04/27 09:37:07;;;;;;;1.30;0.90;;;26.90;25.40;;;;;;5056203;28;20574;-81
2021/04/27 09:39:43;;;;;;;2.00;1.30;;;26.60;25.80;;;;;;5036271;28;20590;-80
2021/04/27 09:42:20;;;;;;;1.90;1.10;;;26.60;26.40;;;;;;5053838;28;20673;-81
2021/04/27 09:44:52;;;;;;;1.63;1.20;;;27.10;27.00;;;;;;5036229;28;20610;-82
2021/04/27 09:47:20;;;;;;;2.03;0.83;;;27.40;26.70;;;;;;5036840;28;20921;-81
2021/04/27 09:50:08;;;;;;;2.57;1.37;;;27.60;26.60;;;;;;5040496;28;20579;-81
2021/04/27 09:52:46;;;;;;;2.70;1.37;;;27.50;25.60;;;;;;5036260;28;20567;-81
2021/04/27 09:55:15;;;;;;;1.50;1.00;;;27.30;26.10;;;;;;5053930;28;20603;-81
2021/04/27 09:57:54;;;;;;;2.50;1.20;;;27.20;26.00;;;;;;5019367;28;20594;-82
2021/04/27 10:00:19;;;;;;;3.90;2.10;;;27.30;25.50;;;;;;5035764;28;20987;-81
2021/04/27 10:02:45;;;;;;;1.63;1.27;;;27.20;25.90;;;;;;5019173;28;20583;-80
2021/04/27 10:05:11;;;;;;;1.57;1.27;;;27.30;25.90;;;;;;5054151;28;20679;-81
2021/04/27 10:07:39;;;;;;;1.90;1.00;;;26.90;25.30;;;;;;5053699;28;20175;-81
2021/04/27 10:10:08;;;;;;;1.70;1.10;;;26.80;25.70;;;;;;5035832;28;20184;-80
2021/04/27 10:12:35;;;;;;;1.80;1.10;;;26.80;25.50;;;;;;5053670;28;20579;-81
2021/04/27 10:15:01;;;;;;;1.80;1.23;;;27.00;26.10;;;;;;5053595;28;20626;-81
2021/04/27 10:17:28;;;;;;;1.57;0.90;;;27.40;27.20;;;;;;5035760;28;20582;-78
2021/04/27 10:19:54;;;;;;;3.10;1.30;;;27.60;26.60;;;;;;5035626;28;20676;-79
2021/04/27 10:22:20;;;;;;;1.50;1.00;;;28.00;26.60;;;;;;5035909;28;20587;-79
2021/04/27 10:24:47;;;;;;;3.70;1.20;;;28.50;26.80;;;;;;5038607;28;20599;-79
2021/04/27 10:27:14;;;;;;;3.10;1.03;;;29.00;26.50;;;;;;5054076;28;20173;-79
2021/04/27 10:29:40;;;;;;;1.90;1.03;;;29.30;26.50;;;;;;5042800;28;20614;-79
2021/04/27 10:32:19;;;;;;;4.20;1.20;;;29.80;26.50;;;;;;5073296;28;20582;-79
2021/04/27 10:34:57;;;;;;;4.13;1.00;;;30.30;25.40;;;;;;5073211;28;20187;-79
2021/04/27 10:37:24;;;;;;;2.73;1.60;;;30.00;24.30;;;;;;5054624;28;20687;-79
2021/04/27 10:39:50;;;;;;;2.10;1.00;;;29.30;25.00;;;;;;5073079;28;20614;-79
2021/04/27 10:42:21;;;;;;;2.17;1.03;;;29.20;25.50;;;;;;5054462;28;20563;-78
2021/04/27 10:44:53;;;;;;;1.90;0.93;;;29.20;25.30;;;;;;5054670;28;20226;-79
2021/04/27 10:47:20;;;;;;;1.77;1.17;;;28.90;24.50;;;;;;5054534;28;21121;-79
2021/04/27 10:49:46;;;;;;;1.73;1.23;;;28.60;24.60;;;;;;5072693;28;20570;-79
2021/04/27 10:52:34;;;;;;;3.87;1.13;;;28.10;24.40;;;;;;5073174;28;20566;-79
2021/04/27 10:55:21;;;;;;;1.60;1.00;;;27.60;24.30;;;;;;5072859;28;20586;-80
2021/04/27 10:57:47;;;;;;;1.57;1.30;;;27.30;24.70;;;;;;5068364;28;20682;-79
2021/04/27 11:00:34;;;;;;;2.27;1.00;;;27.00;24.50;;;;;;5035096;28;20623;-78
2021/04/27 11:03:23;;;;;;;1.83;1.00;;;26.90;24.80;;;;;;5056101;28;20979;-78
2021/04/27 11:06:04;;;;;;;1.57;1.10;;;26.90;24.80;;;;;;5043711;28;20615;-78
2021/04/27 11:08:52;;;;;;;1.40;1.00;;;26.70;24.60;;;;;;5035415;28;21111;-80
2021/04/27 11:11:32;;;;;;;1.90;1.20;;;26.70;25.00;;;;;;5062113;28;20571;-78
2021/04/27 11:14:21;;;;;;;2.80;1.03;;;26.60;24.30;;;;;;5041321;28;20607;-79
2021/04/27 11:16:53;;;;;;;1.40;1.07;;;26.40;24.50;;;;;;5063458;28;20598;-81
2021/04/27 11:19:19;;;;;;;1.90;1.07;;;26.10;24.70;;;;;;5059692;28;20588;-83
2021/04/27 11:21:55;;;;;;;1.50;1.13;;;26.10;25.00;;;;;;5049094;28;20626;-80
2021/04/27 11:24:34;;;;;;;2.33;1.00;;;26.10;24.80;;;;;;5070865;28;20282;-81
2021/04/27 11:27:03;;;;;;;1.70;1.27;;;26.10;24.90;;;;;;5034229;28;20576;-80
2021/04/27 11:29:37;;;;;;;2.77;1.20;;;26.00;24.80;;;;;;5040071;28;20570;-80
2021/04/27 11:32:24;;;;;;;1.40;1.00;;;25.90;24.50;;;;;;5054424;28;20577;-80
2021/04/27 11:34:56;;;;;;;1.90;1.17;;;26.00;24.90;;;;;;5000660;28;20624;-81
2021/04/27 11:37:33;;;;;;;1.80;1.10;;;26.20;25.10;;;;;;5022351;28;20564;-82
2021/04/27 11:40:22;;;;;;;1.73;1.00;;;26.20;25.20;;;;;;5017304;28;20631;-81
2021/04/27 11:43:14;;;;;;;2.93;1.57;;;26.20;24.90;;;;;;5014329;28;20622;-82
2021/04/27 11:45:49;;;;;;;1.33;1.00;;;26.30;24.90;;;;;;5005928;28;20768;-81
2021/04/27 11:48:17;;;;;;;1.90;1.20;;;26.00;24.00;;;;;;5013902;28;20661;-80
2021/04/27 11:50:43;;;;;;;2.63;1.20;;;25.60;24.30;;;;;;5021882;28;20582;-80
2021/04/27 11:53:09;;;;;;;1.67;1.43;;;25.30;24.40;;;;;;5051435;28;20582;-78
2021/04/27 11:55:45;;;;;;;3.70;1.50;;;25.10;24.40;;;;;;5037757;28;20711;-81
2021/04/27 11:58:22;;;;;;;4.23;1.20;;;24.90;24.70;;;;;;5013846;28;20592;-81
2021/04/27 12:01:07;;;;;;;1.37;1.17;;;24.90;24.60;;;;;;5014067;28;20625;-81
2021/04/27 12:03:46;;;;;;;1.83;1.07;;;24.90;25.30;;;;;;5032522;28;20582;-80
2021/04/27 12:06:14;;;;;;;4.30;1.17;;;25.10;25.40;;;;;;5031806;28;20573;-80
2021/04/27 12:08:47;;;;;;;1.70;1.10;;;25.30;25.70;;;;;;5013731;28;20569;-80
2021/04/27 12:11:36;;;;;;;2.50;1.30;;;25.50;25.80;;;;;;5031469;28;20623;-80
2021/04/27 12:14:10;;;;;;;2.00;1.30;;;25.40;24.10;;;;;;5031716;28;20951;-80
2021/04/27 12:16:42;;;;;;;2.80;1.20;;;25.10;24.50;;;;;;5043036;28;21129;-80
2021/04/27 12:19:08;;;;;;;3.63;1.20;;;24.90;25.20;;;;;;5031862;28;20611;-81
2021/04/27 12:21:43;;;;;;;1.40;1.17;;;25.00;25.50;;;;;;5031477;28;21253;-80
2021/04/27 12:24:21;;;;;;;3.70;1.60;;;25.00;25.40;;;;;;5014363;28;20699;-79
2021/04/27 12:26:59;;;;;;;2.10;1.60;;;25.00;25.00;;;;;;5031304;28;21128;-78
2021/04/27 12:29:43;;;;;;;1.73;1.27;;;24.90;25.00;;;;;;5031677;28;20585;-77
2021/04/27 12:32:17;;;;;;;1.97;1.30;;;24.80;24.90;;;;;;5014277;28;20743;-77
2021/04/27 12:34:59;;;;;;;2.00;1.30;;;24.70;24.80;;;;;;4997685;28;20612;-78
2021/04/27 12:37:29;;;;;;;2.87;1.10;;;24.30;24.50;;;;;;5031577;28;20572;-77
2021/04/27 12:39:55;;;;;;;3.20;1.50;;;24.00;24.60;;;;;;5013737;28;20734;-76
2021/04/27 12:42:27;;;;;;;1.63;1.30;;;23.90;24.70;;;;;;5032156;28;20596;-78
2021/04/27 12:44:55;;;;;;;1.87;1.23;;;23.80;24.80;;;;;;5013994;28;20608;-78
2021/04/27 12:47:33;;;;;;;6.20;1.30;;;23.70;24.60;;;;;;5013565;28;21002;-79
2021/04/27 12:50:18;;;;;;;1.80;1.10;;;23.60;24.70;;;;;;5013895;28;20583;-76
2021/04/27 12:52:49;;;;;;;2.30;2.10;;;23.40;24.70;;;;;;5014326;28;20591;-76
2021/04/27 12:55:48;;;;;;;3.50;1.33;;;23.10;24.40;;;;;;5017649;28;20620;-77
2021/04/27 12:58:26;;;;;;;2.83;1.53;;;22.80;24.60;;;;;;4982742;28;20589;-76
2021/04/27 13:01:30;;;;;;;2.20;1.50;;;22.50;24.30;;;;;;5012615;28;20727;-77
2021/04/27 13:04:29;;;;;;;2.70;1.30;;;22.20;24.30;;;;;;4952267;28;20596;-76
2021/04/27 13:06:55;;;;;;;2.43;1.60;;;22.00;24.80;;;;;;4900168;29;21006;-77
2021/04/27 13:09:27;;;;;;;2.40;2.00;;;21.80;24.50;;;;;;4918986;28;20592;-77
2021/04/27 13:12:05;;;;;;;2.20;1.50;;;21.40;24.30;;;;;;5015326;28;20541;-76